Time;durP1;ratioP1;P1;durP2;ratioP2;P2;SDS_P1;SDS_P2;PMS_P1;PMS_P2;Temp;Humidity;BMP_temperature;BMP_pressure;BME280_temperature;BME280_humidity;BME280_pressure;Samples;Min_cycle;Max_cycle;Signal;HPM_P1;HPM_P2
2021/05/12 00:01:31;;;;;;;2.92;2.55;;;;;;;11.62;100.00;95789.34;4964907;28;20509;-51
2021/05/12 00:04:02;;;;;;;3.20;2.83;;;;;;;11.82;100.00;95787.16;4952864;28;20074;-49
2021/05/12 00:06:30;;;;;;;;;;;;;;;11.75;100.00;95781.72;4957987;28;20039;-46
2021/05/12 00:08:59;;;;;;;2.15;1.95;;;;;;;11.45;100.00;95785.09;4964456;28;19926;-47
2021/05/12 00:11:27;;;;;;;3.75;2.55;;;;;;;11.54;100.00;95782.28;4962558;28;20070;-51
2021/05/12 00:13:56;;;;;;;2.60;2.38;;;;;;;11.56;100.00;95790.88;4960044;28;20074;-48
2021/05/12 00:16:25;;;;;;;2.55;2.35;;;;;;;11.34;100.00;95794.16;4949384;28;20043;-49
2021/05/12 00:18:55;;;;;;;2.67;2.47;;;;;;;11.45;100.00;95782.44;4952101;28;20085;-48
2021/05/12 00:21:30;;;;;;;3.53;2.45;;;;;;;11.41;100.00;95779.31;4962240;28;20535;-46
2021/05/12 00:24:00;;;;;;;1.88;1.70;;;;;;;11.49;100.00;95775.81;4963403;28;20047;-48
2021/05/12 00:26:36;;;;;;;2.38;2.10;;;;;;;11.36;100.00;95769.25;4975380;28;20058;-49
2021/05/12 00:29:05;;;;;;;1.85;1.75;;;;;;;11.44;100.00;95771.06;4973537;28;20516;-48
2021/05/12 00:31:35;;;;;;;1.67;1.58;;;;;;;11.31;100.00;95768.91;4962024;28;20068;-49
2021/05/12 00:34:05;;;;;;;1.65;1.55;;;;;;;11.37;100.00;95764.81;4956875;28;20042;-47
2021/05/12 00:36:36;;;;;;;2.40;1.90;;;;;;;11.43;100.00;95769.41;4964848;28;20047;-55
2021/05/12 00:39:07;;;;;;;2.45;1.60;;;;;;;11.38;100.00;95766.44;4965368;28;20450;-50
2021/05/12 00:41:37;;;;;;;1.52;1.40;;;;;;;11.50;100.00;95761.66;4960486;28;20619;-46
2021/05/12 00:44:07;;;;;;;2.63;1.50;;;;;;;11.11;100.00;95754.41;4963597;28;20066;-49
2021/05/12 00:46:43;;;;;;;1.77;1.50;;;;;;;11.34;100.00;95763.31;4960888;28;20039;-47
2021/05/12 00:49:12;;;;;;;1.83;1.50;;;;;;;11.55;100.00;95752.22;4964687;28;20802;-47
2021/05/12 00:51:44;;;;;;;1.48;1.38;;;;;;;11.29;100.00;95747.16;4958295;28;20584;-50
2021/05/12 00:54:14;;;;;;;1.40;1.30;;;;;;;11.33;100.00;95747.66;4967440;28;20082;-50
2021/05/12 00:56:43;;;;;;;1.30;1.20;;;;;;;11.35;100.00;95741.19;4972618;28;20093;-50
2021/05/12 00:59:12;;;;;;;1.98;1.30;;;;;;;11.31;100.00;95742.53;4957420;28;20078;-47
2021/05/12 01:01:41;;;;;;;1.42;1.30;;;;;;;11.38;100.00;95738.22;4957047;28;20090;-48
2021/05/12 01:04:10;;;;;;;1.20;1.20;;;;;;;11.27;100.00;95728.00;4963604;28;20676;-54
2021/05/12 01:06:40;;;;;;;1.95;1.20;;;;;;;11.20;100.00;95716.47;4959127;28;20043;-49
2021/05/12 01:09:10;;;;;;;1.33;1.23;;;;;;;11.11;100.00;95723.59;4962605;28;20042;-50
2021/05/12 01:11:41;;;;;;;1.50;1.40;;;;;;;11.16;100.00;95729.19;4958541;28;20067;-49
2021/05/12 01:14:10;;;;;;;1.50;1.13;;;;;;;11.12;100.00;95729.69;4963814;28;20490;-53
2021/05/12 01:16:40;;;;;;;1.20;1.10;;;;;;;11.05;100.00;95726.06;4953884;28;20082;-50
2021/05/12 01:19:09;;;;;;;1.10;1.10;;;;;;;11.09;100.00;95724.75;4964428;28;20066;-47
2021/05/12 01:21:39;;;;;;;1.20;1.20;;;;;;;11.16;100.00;95726.53;4965184;28;20042;-49
2021/05/12 01:24:10;;;;;;;1.65;1.20;;;;;;;11.03;100.00;95728.03;4955104;28;20386;-46
2021/05/12 01:26:40;;;;;;;1.20;1.13;;;;;;;11.12;100.00;95732.34;4963885;28;20034;-46
2021/05/12 01:29:09;;;;;;;1.53;1.43;;;;;;;11.14;100.00;95733.78;4959783;28;20071;-50
2021/05/12 01:31:43;;;;;;;1.10;1.10;;;;;;;11.07;100.00;95735.44;4964445;28;20066;-48
2021/05/12 01:34:13;;;;;;;1.63;1.33;;;;;;;11.19;100.00;95733.31;4968812;28;20456;-51
2021/05/12 01:36:43;;;;;;;1.40;1.30;;;;;;;11.13;100.00;95741.88;4965050;28;20074;-46
2021/05/12 01:39:12;;;;;;;;;;;;;;;11.04;100.00;95751.59;4961868;28;20055;-47
2021/05/12 01:41:41;;;;;;;1.40;1.30;;;;;;;10.98;100.00;95744.38;4968753;28;20047;-51
2021/05/12 01:44:11;;;;;;;1.38;1.27;;;;;;;11.21;100.00;95748.97;4961759;28;20043;-49
2021/05/12 01:46:42;;;;;;;1.40;1.23;;;;;;;10.89;100.00;95735.63;4961068;28;20102;-48
2021/05/12 01:49:12;;;;;;;1.40;1.30;;;;;;;11.04;100.00;95758.69;4956468;28;20043;-47
2021/05/12 01:51:42;;;;;;;1.40;1.30;;;;;;;10.90;100.00;95754.91;4954946;28;20465;-52
2021/05/12 01:54:12;;;;;;;1.33;1.20;;;;;;;11.03;100.00;95755.25;4962947;28;20031;-52
2021/05/12 01:56:42;;;;;;;3.00;1.40;;;;;;;10.98;100.00;95757.56;4970513;28;20129;-49
2021/05/12 01:59:11;;;;;;;1.40;1.30;;;;;;;11.03;100.00;95763.16;4959711;28;20050;-50
2021/05/12 02:01:40;;;;;;;2.23;1.30;;;;;;;10.92;100.00;95761.66;4965782;28;20046;-51
2021/05/12 02:04:10;;;;;;;1.55;1.25;;;;;;;11.09;100.00;95761.69;4964813;28;20042;-52
2021/05/12 02:06:38;;;;;;;1.35;1.25;;;;;;;11.08;100.00;95763.50;4967185;28;20046;-52
2021/05/12 02:09:08;;;;;;;1.73;1.50;;;;;;;11.01;100.00;95766.94;4970651;28;20061;-51
2021/05/12 02:11:39;;;;;;;1.27;1.27;;;;;;;11.00;100.00;95762.66;4972535;28;20087;-51
2021/05/12 02:14:08;;;;;;;1.20;1.10;;;;;;;10.76;100.00;95755.56;4973815;28;20081;-49
2021/05/12 02:16:37;;;;;;;1.77;1.40;;;;;;;10.88;100.00;95756.91;4963493;28;20055;-51
2021/05/12 02:19:07;;;;;;;1.17;1.10;;;;;;;10.72;100.00;95747.13;4967097;28;20457;-53
2021/05/12 02:21:36;;;;;;;1.35;1.23;;;;;;;10.91;100.00;95756.56;4970295;28;20038;-52
2021/05/12 02:24:07;;;;;;;1.42;1.20;;;;;;;10.99;100.00;95747.81;4967967;28;20117;-46
2021/05/12 02:26:37;;;;;;;1.30;1.20;;;;;;;10.86;100.00;95749.13;4973107;28;20043;-49
2021/05/12 02:29:06;;;;;;;1.60;1.50;;;;;;;10.95;100.00;95762.34;4975477;28;20070;-49
2021/05/12 02:31:35;;;;;;;1.45;1.30;;;;;;;10.84;100.00;95753.75;4967774;28;20122;-55
2021/05/12 02:34:05;;;;;;;1.38;1.27;;;;;;;10.76;100.00;95759.00;4966288;28;20043;-46
2021/05/12 02:36:33;;;;;;;1.50;1.40;;;;;;;10.89;100.00;95763.81;4962105;28;20066;-49
2021/05/12 02:39:02;;;;;;;1.50;1.40;;;;;;;10.90;100.00;95758.34;4968193;28;20101;-49
2021/05/12 02:41:31;;;;;;;1.60;1.40;;;;;;;11.01;100.00;95761.66;4967200;28;20074;-48
2021/05/12 02:43:59;;;;;;;1.30;1.20;;;;;;;10.99;100.00;95759.19;4965014;28;20097;-48
2021/05/12 02:46:28;;;;;;;1.40;1.30;;;;;;;11.14;100.00;95760.19;4964650;28;20054;-47
2021/05/12 02:48:57;;;;;;;1.95;1.48;;;;;;;10.90;100.00;95754.91;4970030;28;20070;-47
2021/05/12 02:51:26;;;;;;;1.67;1.50;;;;;;;10.93;100.00;95758.03;4963842;28;20042;-53
2021/05/12 02:53:55;;;;;;;1.40;1.30;;;;;;;10.91;100.00;95753.94;4973961;28;20050;-46
2021/05/12 02:56:24;;;;;;;1.67;1.52;;;;;;;10.84;100.00;95752.91;4971126;28;20039;-53
2021/05/12 02:58:54;;;;;;;1.55;1.45;;;;;;;10.96;100.00;95751.63;4960155;28;20098;-46
2021/05/12 03:01:22;;;;;;;2.60;1.40;;;;;;;10.94;100.00;95748.31;4965336;28;20078;-48
2021/05/12 03:03:51;;;;;;;1.85;1.23;;;;;;;10.90;100.00;95763.63;4966025;28;20074;-46
2021/05/12 03:06:19;;;;;;;1.50;1.40;;;;;;;10.99;100.00;95764.47;4968862;28;20081;-47
2021/05/12 03:08:49;;;;;;;1.52;1.40;;;;;;;10.79;100.00;95771.06;4971781;28;20109;-50
2021/05/12 03:11:19;;;;;;;2.00;1.50;;;;;;;10.78;100.00;95766.78;4965008;28;20595;-49
2021/05/12 03:13:48;;;;;;;1.58;1.45;;;;;;;10.84;100.00;95764.31;4973280;28;20561;-51
2021/05/12 03:16:18;;;;;;;1.52;1.42;;;;;;;10.85;100.00;95758.03;4964610;28;20104;-47
2021/05/12 03:18:47;;;;;;;2.72;1.40;;;;;;;10.79;100.00;95766.59;4973260;28;20517;-49
2021/05/12 03:21:16;;;;;;;1.48;1.38;;;;;;;10.73;100.00;95767.25;4967022;28;20092;-47
2021/05/12 03:23:46;;;;;;;2.15;1.50;;;;;;;10.73;100.00;95771.69;4974261;28;20720;-46
2021/05/12 03:26:16;;;;;;;1.48;1.38;;;;;;;10.71;100.00;95769.22;4965643;28;20486;-49
2021/05/12 03:28:45;;;;;;;1.50;1.40;;;;;;;10.89;100.00;95767.28;4965097;28;20042;-48
2021/05/12 03:31:13;;;;;;;1.40;1.30;;;;;;;10.89;100.00;95763.81;4963343;28;20482;-47
2021/05/12 03:33:44;;;;;;;1.40;1.30;;;;;;;10.75;100.00;95767.91;4965354;28;20481;-48
2021/05/12 03:36:15;;;;;;;1.45;1.35;;;;;;;10.91;100.00;95769.75;4966106;28;20485;-49
2021/05/12 03:38:44;;;;;;;1.52;1.20;;;;;;;10.93;100.00;95773.03;4965979;28;20478;-51
2021/05/12 03:41:15;;;;;;;1.45;1.35;;;;;;;10.89;100.00;95771.72;4959102;28;20050;-46
2021/05/12 03:43:44;;;;;;;1.48;1.38;;;;;;;10.96;100.00;95767.44;4962574;28;20043;-47
2021/05/12 03:46:12;;;;;;;1.42;1.25;;;;;;;11.22;100.00;95767.28;4962262;28;20062;-48
2021/05/12 03:48:44;;;;;;;1.52;1.42;;;;;;;10.87;100.00;95771.06;4972367;28;20544;-47
2021/05/12 03:51:13;;;;;;;1.23;1.17;;;;;;;11.02;100.00;95777.34;4967374;28;20069;-46
2021/05/12 03:53:42;;;;;;;1.80;1.20;;;;;;;11.06;100.00;95772.56;4964975;28;20035;-49
2021/05/12 03:56:11;;;;;;;1.75;1.30;;;;;;;11.10;100.00;95779.97;4965631;28;20606;-48
2021/05/12 03:58:41;;;;;;;1.42;1.33;;;;;;;11.22;100.00;95771.72;4971430;28;20477;-53
2021/05/12 04:01:10;;;;;;;1.53;1.30;;;;;;;11.10;100.00;95766.78;4962700;28;20070;-54
2021/05/12 04:03:40;;;;;;;1.13;1.13;;;;;;;11.02;100.00;95777.34;4958410;28;20042;-46
2021/05/12 04:06:10;;;;;;;1.30;1.20;;;;;;;10.90;100.00;95768.09;4964739;28;20130;-46
2021/05/12 04:08:39;;;;;;;1.40;1.30;;;;;;;11.07;100.00;95775.03;4963268;28;20050;-50
2021/05/12 04:11:07;;;;;;;1.42;1.33;;;;;;;11.02;100.00;95777.34;4964680;28;20043;-47
2021/05/12 04:13:37;;;;;;;3.00;1.30;;;;;;;11.21;100.00;95778.00;4964336;28;20072;-49
2021/05/12 04:16:06;;;;;;;1.83;1.48;;;;;;;11.00;100.00;95781.94;4962342;28;20042;-47
2021/05/12 04:18:35;;;;;;;1.42;1.33;;;;;;;10.92;100.00;95785.41;4961970;28;20089;-47
2021/05/12 04:21:05;;;;;;;2.45;1.30;;;;;;;10.99;100.00;95779.47;4966572;28;20035;-46
2021/05/12 04:23:36;;;;;;;1.40;1.30;;;;;;;11.15;100.00;95780.31;4964104;28;20054;-46
2021/05/12 04:26:04;;;;;;;1.70;1.40;;;;;;;11.01;100.00;95786.25;4965917;28;20387;-47
2021/05/12 04:28:33;;;;;;;1.17;1.10;;;;;;;10.90;100.00;95783.91;4962354;28;20047;-49
2021/05/12 04:31:02;;;;;;;1.40;1.30;;;;;;;10.98;100.00;95786.59;4964055;28;20065;-51
2021/05/12 04:33:32;;;;;;;2.35;1.30;;;;;;;11.01;100.00;95788.03;4964924;28;20070;-47
2021/05/12 04:36:01;;;;;;;1.40;1.30;;;;;;;10.98;100.00;95788.38;4959078;28;20051;-49
2021/05/12 04:38:29;;;;;;;4.32;1.40;;;;;;;11.02;100.00;95787.91;4964586;28;20598;-50
2021/05/12 04:40:59;;;;;;;1.25;1.15;;;;;;;11.11;100.00;95786.91;4962971;28;20170;-49
2021/05/12 04:43:28;;;;;;;1.65;1.50;;;;;;;11.19;100.00;95782.63;4967567;28;20078;-49
2021/05/12 04:45:56;;;;;;;2.05;1.30;;;;;;;11.24;100.00;95780.31;4961430;28;20082;-49
2021/05/12 04:48:26;;;;;;;7.15;1.55;;;;;;;11.10;100.00;95785.25;4963602;28;20059;-49
2021/05/12 04:50:56;;;;;;;3.20;1.40;;;;;;;11.24;100.00;95783.78;4962174;28;20058;-46
2021/05/12 04:53:25;;;;;;;1.45;1.35;;;;;;;11.13;100.00;95781.47;4963398;28;20085;-48
2021/05/12 04:55:54;;;;;;;1.50;1.40;;;;;;;11.25;100.00;95782.81;4964989;28;20074;-49
2021/05/12 04:58:25;;;;;;;3.55;1.40;;;;;;;11.21;100.00;95785.91;4957904;28;20053;-50
2021/05/12 05:00:53;;;;;;;1.83;1.42;;;;;;;11.09;100.00;95788.88;4963992;28;20069;-49
2021/05/12 05:03:23;;;;;;;2.00;1.30;;;;;;;10.96;100.00;95791.19;4965998;28;20529;-49
2021/05/12 05:05:53;;;;;;;1.35;1.25;;;;;;;11.16;100.00;95786.41;4950490;28;20168;-47
2021/05/12 05:08:23;;;;;;;1.40;1.30;;;;;;;11.19;100.00;95788.72;4961945;28;20075;-51
2021/05/12 05:10:52;;;;;;;2.05;1.40;;;;;;;11.31;100.00;95790.03;4955964;28;20283;-51
2021/05/12 05:13:21;;;;;;;1.58;1.10;;;;;;;11.24;100.00;95790.88;4960633;28;20074;-48
2021/05/12 05:15:51;;;;;;;1.40;1.30;;;;;;;11.24;100.00;95786.41;4956674;28;20035;-46
2021/05/12 05:18:20;;;;;;;1.40;1.30;;;;;;;11.58;100.00;95782.75;4963659;28;20066;-50
2021/05/12 05:20:49;;;;;;;1.42;1.33;;;;;;;11.35;100.00;95787.88;4970244;28;20078;-46
2021/05/12 05:23:19;;;;;;;2.13;1.40;;;;;;;11.12;100.00;95788.56;4963754;28;20054;-50
2021/05/12 05:25:50;;;;;;;2.20;1.40;;;;;;;11.19;100.00;95785.28;4966295;28;20038;-49
2021/05/12 05:28:20;;;;;;;2.10;1.40;;;;;;;11.32;100.00;95791.69;4969700;28;20050;-53
2021/05/12 05:30:51;;;;;;;2.05;1.42;;;;;;;11.29;100.00;95791.22;4962702;28;20079;-54
2021/05/12 05:33:20;;;;;;;1.40;1.30;;;;;;;11.12;100.00;95791.19;4961250;28;20051;-51
2021/05/12 05:35:49;;;;;;;1.52;1.42;;;;;;;11.16;100.00;95789.88;4970783;28;20102;-48
2021/05/12 05:38:19;;;;;;;1.48;1.38;;;;;;;11.45;100.00;95793.81;4966729;28;20047;-46
2021/05/12 05:40:48;;;;;;;;;;;;;;;11.35;100.00;95793.16;4959288;28;20441;-48
2021/05/12 05:43:17;;;;;;;1.70;1.60;;;;;;;11.39;100.00;95795.31;4970939;28;20454;-50
2021/05/12 05:45:46;;;;;;;2.72;2.10;;;;;;;11.59;100.00;95794.97;4971188;28;20042;-51
2021/05/12 05:48:15;;;;;;;2.30;1.80;;;;;;;11.54;100.00;95787.53;4969718;28;20047;-50
2021/05/12 05:50:44;;;;;;;1.83;1.40;;;;;;;11.38;100.00;95792.84;4965778;28;20086;-54
2021/05/12 05:53:12;;;;;;;1.63;1.48;;;;;;;11.61;100.00;95793.81;4961954;28;20075;-49
2021/05/12 05:55:42;;;;;;;5.07;1.70;;;;;;;11.59;100.00;95795.78;4960718;28;20094;-50
2021/05/12 05:58:11;;;;;;;2.42;1.75;;;;;;;11.76;100.00;95793.94;4967318;28;20072;-54
2021/05/12 06:00:41;;;;;;;2.05;1.23;;;;;;;11.65;100.00;95796.94;4968260;28;20062;-52
2021/05/12 06:03:11;;;;;;;1.63;1.30;;;;;;;11.82;100.00;95782.72;4969795;28;20442;-50
2021/05/12 06:05:46;;;;;;;2.65;1.50;;;;;;;11.77;100.00;95785.03;4971180;28;20094;-50
2021/05/12 06:08:33;;;;;;;2.72;1.60;;;;;;;11.75;100.00;95794.13;4968460;28;20538;-47
2021/05/12 06:11:04;;;;;;;1.75;1.60;;;;;;;11.78;100.00;95785.88;4968238;28;20042;-50
2021/05/12 06:13:33;;;;;;;1.50;1.40;;;;;;;11.72;100.00;95792.63;4964626;28;20047;-46
2021/05/12 06:16:03;;;;;;;1.85;1.65;;;;;;;11.51;100.00;95793.16;4964564;28;20505;-49
2021/05/12 06:18:51;;;;;;;2.10;1.60;;;;;;;11.86;100.00;95788.50;4969159;28;20062;-47
2021/05/12 06:21:22;;;;;;;1.85;1.73;;;;;;;11.79;100.00;95790.16;4963442;28;20058;-49
2021/05/12 06:23:51;;;;;;;1.48;1.30;;;;;;;11.73;100.00;95796.09;4971461;28;20055;-52
2021/05/12 06:26:22;;;;;;;1.30;1.20;;;;;;;11.80;100.00;95792.63;4967432;28;20425;-52
2021/05/12 06:28:51;;;;;;;1.73;1.30;;;;;;;11.73;100.00;95801.38;4966338;28;20782;-50
2021/05/12 06:31:19;;;;;;;3.72;1.67;;;;;;;11.85;100.00;95805.34;4968573;28;20081;-49
2021/05/12 06:33:49;;;;;;;2.53;1.40;;;;;;;12.10;100.00;95790.25;4967343;28;20043;-46
2021/05/12 06:36:18;;;;;;;3.65;1.60;;;;;;;12.04;100.00;95793.56;4965927;28;20055;-53
2021/05/12 06:39:07;;;;;;;1.42;1.33;;;;;;;11.86;100.00;95791.16;4967146;28;20099;-52
2021/05/12 06:41:39;;;;;;;2.42;1.23;;;;;;;11.89;100.00;95796.09;4968983;28;20098;-51
2021/05/12 06:44:08;;;;;;;1.45;1.30;;;;;;;12.20;100.00;95793.53;4965285;28;20039;-49
2021/05/12 06:46:38;;;;;;;1.92;1.25;;;;;;;12.21;100.00;95791.69;4960754;28;20062;-52
2021/05/12 06:49:06;;;;;;;3.42;1.40;;;;;;;12.10;100.00;95796.34;4959064;28;20090;-48
2021/05/12 06:51:35;;;;;;;1.58;1.13;;;;;;;12.03;100.00;95792.75;4964324;28;20047;-49
2021/05/12 06:54:06;;;;;;;1.67;1.50;;;;;;;11.85;100.00;95800.91;4968169;28;20044;-51
2021/05/12 06:56:37;;;;;;;3.08;1.50;;;;;;;12.01;100.00;95794.75;4969258;28;20390;-54
2021/05/12 06:59:07;;;;;;;1.42;1.33;;;;;;;12.25;100.00;95793.84;4947948;28;20046;-49
2021/05/12 07:01:37;;;;;;;3.58;1.33;;;;;;;12.17;100.00;95793.88;4966308;28;20093;-51
2021/05/12 07:04:06;;;;;;;2.17;1.40;;;;;;;12.20;100.00;95787.41;4962977;28;20074;-54
2021/05/12 07:06:35;;;;;;;2.58;1.30;;;;;;;12.37;100.00;95786.34;4965506;28;20444;-52
2021/05/12 07:09:04;;;;;;;2.42;1.20;;;;;;;11.95;100.00;95792.78;4960884;28;20039;-51
2021/05/12 07:11:34;;;;;;;1.50;1.20;;;;;;;12.15;100.00;95787.09;4970659;28;20101;-52
2021/05/12 07:14:04;;;;;;;1.75;1.35;;;;;;;12.15;100.00;95795.88;4967261;28;20039;-54
2021/05/12 07:16:33;;;;;;;1.75;1.30;;;;;;;12.01;100.00;95793.91;4962748;28;20097;-51
2021/05/12 07:19:02;;;;;;;1.40;1.30;;;;;;;12.22;100.00;95793.38;4967987;28;20074;-49
2021/05/12 07:21:31;;;;;;;2.13;1.50;;;;;;;12.17;100.00;95788.56;4967940;28;20453;-47
2021/05/12 07:23:59;;;;;;;2.10;1.60;;;;;;;12.22;100.00;95790.72;4967181;28;20633;-52
2021/05/12 07:26:29;;;;;;;1.73;1.63;;;;;;;12.12;100.00;95780.34;4965423;28;20512;-47
2021/05/12 07:28:59;;;;;;;1.77;1.67;;;;;;;12.21;100.00;95783.78;4960939;28;20043;-51
2021/05/12 07:31:28;;;;;;;1.60;1.50;;;;;;;12.34;100.00;95787.50;4959023;28;20070;-47
2021/05/12 07:33:57;;;;;;;2.55;1.63;;;;;;;12.40;100.00;95780.72;4971088;28;20071;-46
2021/05/12 07:36:26;;;;;;;1.52;1.42;;;;;;;12.46;100.00;95774.75;4959521;28;20436;-50
2021/05/12 07:38:56;;;;;;;1.75;1.60;;;;;;;12.52;100.00;95776.69;4954019;28;20070;-47
2021/05/12 07:41:24;;;;;;;1.73;1.60;;;;;;;12.51;100.00;95776.88;4953306;28;20512;-47
2021/05/12 07:43:54;;;;;;;1.98;1.60;;;;;;;12.80;100.00;95766.44;4948909;28;20047;-48
2021/05/12 07:46:29;;;;;;;2.17;1.98;;;;;;;12.56;100.00;95769.25;4958313;28;20073;-50
2021/05/12 07:48:58;;;;;;;1.92;1.73;;;;;;;12.79;100.00;95764.78;4946567;28;20066;-45
2021/05/12 07:51:27;;;;;;;1.95;1.80;;;;;;;12.87;100.00;95771.03;4968182;28;20619;-49
2021/05/12 07:53:56;;;;;;;3.00;2.03;;;;;;;12.42;100.00;95770.81;4967017;28;20043;-52
2021/05/12 07:56:26;;;;;;;1.90;1.75;;;;;;;12.23;100.00;95771.22;4964392;28;20106;-50
2021/05/12 07:58:55;;;;;;;2.20;1.85;;;;;;;12.43;100.00;95767.16;4970495;28;20055;-46
2021/05/12 08:01:28;;;;;;;1.90;1.70;;;;;;;12.35;100.00;95770.69;4952669;28;20604;-52
2021/05/12 08:04:15;;;;;;;1.80;1.70;;;;;;;12.28;100.00;95764.41;4943538;28;20051;-52
2021/05/12 08:06:44;;;;;;;2.20;1.80;;;;;;;12.52;100.00;95760.81;4951487;28;20122;-49
2021/05/12 08:09:14;;;;;;;1.60;1.50;;;;;;;12.66;100.00;95758.41;4959340;28;20117;-49
2021/05/12 08:11:42;;;;;;;1.90;1.70;;;;;;;12.72;100.00;95761.19;4971491;28;20093;-47
2021/05/12 08:14:11;;;;;;;1.40;1.30;;;;;;;12.29;100.00;95759.97;4965769;28;20046;-47
2021/05/12 08:16:40;;;;;;;1.70;1.60;;;;;;;12.96;100.00;95756.75;4968451;28;20031;-47
2021/05/12 08:19:08;;;;;;;1.48;1.38;;;;;;;12.83;100.00;95757.31;4963821;28;20518;-51
2021/05/12 08:21:38;;;;;;;1.63;1.52;;;;;;;13.05;100.00;95758.34;4964003;28;20067;-47
2021/05/12 08:24:08;;;;;;;2.33;1.60;;;;;;;13.07;100.00;95748.38;4961081;28;20070;-49
2021/05/12 08:26:36;;;;;;;2.45;1.55;;;;;;;13.13;100.00;95754.81;4967821;28;20081;-49
2021/05/12 08:29:07;;;;;;;1.40;1.30;;;;;;;13.25;100.00;95750.78;4959800;28;21680;-48
2021/05/12 08:31:38;;;;;;;;;;;;;;;12.86;100.00;95758.78;4961219;28;20129;-46
2021/05/12 08:34:07;;;;;;;1.55;1.42;;;;;;;12.61;100.00;95766.06;4957892;28;20120;-46
2021/05/12 08:36:35;;;;;;;1.60;1.50;;;;;;;12.47;100.00;95765.00;4968069;28;20070;-47
2021/05/12 08:39:08;;;;;;;1.75;1.40;;;;;;;12.62;100.00;95763.25;4966576;28;20092;-48
2021/05/12 08:41:37;;;;;;;1.60;1.50;;;;;;;12.74;100.00;95758.38;4949155;28;20071;-49
2021/05/12 08:44:08;;;;;;;1.63;1.52;;;;;;;12.56;100.00;95763.97;4948804;28;20038;-47
2021/05/12 08:46:37;;;;;;;1.60;1.50;;;;;;;12.40;100.00;95767.50;4960435;28;20046;-48
2021/05/12 08:49:06;;;;;;;1.80;1.70;;;;;;;12.69;100.00;95755.44;4957332;28;20066;-46
2021/05/12 08:51:36;;;;;;;1.73;1.63;;;;;;;12.82;100.00;95750.38;4956862;28;20075;-50
2021/05/12 08:54:08;;;;;;;2.08;1.83;;;;;;;12.78;100.00;95749.09;4963130;28;20069;-49
2021/05/12 08:56:37;;;;;;;1.60;1.50;;;;;;;12.41;100.00;95742.69;4962182;28;20074;-46
2021/05/12 08:59:07;;;;;;;2.05;1.90;;;;;;;12.43;100.00;95758.41;4962978;28;20239;-46
2021/05/12 09:01:36;;;;;;;1.77;1.67;;;;;;;12.48;100.00;95766.63;4958897;28;20574;-50
2021/05/12 09:04:06;;;;;;;1.80;1.70;;;;;;;12.10;100.00;95767.28;4956226;28;20522;-49
2021/05/12 09:06:35;;;;;;;1.95;1.80;;;;;;;12.27;100.00;95777.81;4963336;28;20047;-46
2021/05/12 09:09:07;;;;;;;2.67;1.70;;;;;;;12.42;100.00;95768.16;4966080;28;20112;-50
2021/05/12 09:11:37;;;;;;;2.30;2.10;;;;;;;12.41;100.00;95766.50;4971782;28;20059;-47
2021/05/12 09:14:26;;;;;;;2.57;2.00;;;;;;;12.29;100.00;95758.13;4966306;28;20514;-50
2021/05/12 09:16:56;;;;;;;2.55;2.35;;;;;;;12.33;100.00;95762.09;4962043;28;20106;-47
2021/05/12 09:19:28;;;;;;;3.13;2.72;;;;;;;12.27;100.00;95769.88;4960739;28;20054;-48
2021/05/12 09:22:00;;;;;;;3.85;2.47;;;;;;;12.29;100.00;95771.34;4965677;28;20047;-46
2021/05/12 09:24:34;;;;;;;3.13;2.75;;;;;;;12.20;100.00;95756.50;4966775;28;20082;-53
2021/05/12 09:27:10;;;;;;;2.53;2.33;;;;;;;12.28;100.00;95764.41;4961627;28;20047;-47
2021/05/12 09:29:41;;;;;;;3.50;2.72;;;;;;;12.33;100.00;95763.91;4967711;28;20082;-46
2021/05/12 09:32:11;;;;;;;4.10;3.00;;;;;;;12.33;100.00;95771.84;4962039;28;20124;-51
2021/05/12 09:34:55;;;;;;;3.40;3.10;;;;;;;12.44;100.00;95765.34;4965637;28;20042;-47
2021/05/12 09:37:26;;;;;;;4.32;2.90;;;;;;;12.30;100.00;95767.72;4962757;28;20074;-50
2021/05/12 09:39:57;;;;;;;3.42;3.10;;;;;;;12.15;100.00;95776.50;4965132;28;20043;-48
2021/05/12 09:42:27;;;;;;;4.68;3.53;;;;;;;12.39;100.00;95773.78;4965628;28;20054;-47
2021/05/12 09:45:15;;;;;;;3.72;3.38;;;;;;;12.33;100.00;95782.41;4963695;28;20182;-50
2021/05/12 09:47:47;;;;;;;4.50;3.92;;;;;;;12.33;100.00;95777.13;4967188;28;20063;-51
2021/05/12 09:50:21;;;;;;;5.00;4.13;;;;;;;12.55;100.00;95771.03;4965833;28;20046;-49
2021/05/12 09:52:52;;;;;;;4.10;3.70;;;;;;;12.40;100.00;95762.22;4961588;28;20047;-51
2021/05/12 09:55:33;;;;;;;4.53;3.70;;;;;;;12.45;100.00;95748.47;4967862;28;20097;-47
2021/05/12 09:58:05;;;;;;;5.65;4.22;;;;;;;12.55;100.00;95759.66;4964736;28;20039;-48
2021/05/12 10:00:35;;;;;;;4.50;4.10;;;;;;;12.46;100.00;95761.53;4964374;28;20043;-52
2021/05/12 10:03:23;;;;;;;4.97;4.28;;;;;;;12.66;100.00;95753.13;4959570;28;20547;-46
2021/05/12 10:05:52;;;;;;;;;;;;;;;12.72;100.00;95757.72;4969350;28;20461;-50
2021/05/12 10:08:22;;;;;;;5.20;3.90;;;;;;;12.56;100.00;95750.75;4963445;28;19922;-46
2021/05/12 10:10:55;;;;;;;4.55;3.92;;;;;;;12.69;100.00;95750.16;4958915;28;20090;-49
2021/05/12 10:13:25;;;;;;;5.30;4.53;;;;;;;12.87;100.00;95755.16;4963712;28;20097;-49
2021/05/12 10:15:54;;;;;;;5.03;4.37;;;;;;;12.74;100.00;95753.91;4966711;28;20529;-50
2021/05/12 10:18:23;;;;;;;5.38;4.60;;;;;;;12.57;100.00;95758.47;4963043;28;20057;-47
2021/05/12 10:20:56;;;;;;;5.32;4.82;;;;;;;12.65;100.00;95751.50;4968252;28;20070;-49
2021/05/12 10:23:26;;;;;;;4.82;4.30;;;;;;;12.45;100.00;95761.69;4968664;28;20555;-47
2021/05/12 10:25:58;;;;;;;5.80;4.47;;;;;;;12.54;100.00;95761.47;4966336;28;20580;-50
2021/05/12 10:28:28;;;;;;;4.68;4.20;;;;;;;12.45;100.00;95748.47;4965042;28;20042;-49
2021/05/12 10:30:57;;;;;;;4.95;4.13;;;;;;;12.76;100.00;95751.09;4972216;28;20070;-50
2021/05/12 10:33:47;;;;;;;5.70;4.45;;;;;;;12.94;100.00;95756.09;4965423;28;20102;-46
2021/05/12 10:36:21;;;;;;;5.55;4.97;;;;;;;12.67;100.00;95750.34;4964703;28;20090;-46
2021/05/12 10:38:52;;;;;;;5.95;5.35;;;;;;;12.63;100.00;95754.34;4975075;28;20086;-48
2021/05/12 10:41:40;;;;;;;;;;;;;;;12.64;100.00;95768.38;4943123;28;20047;-48
2021/05/12 10:44:17;;;;;;;5.50;4.68;;;;;;;12.61;100.00;95774.81;4964471;28;19950;-46
2021/05/12 10:46:48;;;;;;;5.55;4.95;;;;;;;12.38;100.00;95774.78;4969012;28;20547;-48
2021/05/12 10:49:26;;;;;;;5.32;4.82;;;;;;;12.21;100.00;95774.00;4962756;28;20070;-50
2021/05/12 10:51:56;;;;;;;6.07;5.53;;;;;;;12.34;100.00;95781.41;4967022;28;20039;-51
2021/05/12 10:54:40;;;;;;;6.18;5.15;;;;;;;12.24;100.00;95764.94;4968208;28;20120;-50
2021/05/12 10:57:10;;;;;;;6.65;5.10;;;;;;;12.55;100.00;95775.50;4969527;28;20093;-48
2021/05/12 10:59:42;;;;;;;8.13;6.07;;;;;;;12.62;100.00;95762.41;4965002;28;20070;-47
2021/05/12 11:02:11;;;;;;;6.53;5.65;;;;;;;12.72;100.00;95760.38;4965265;28;20078;-49
2021/05/12 11:05:00;;;;;;;7.10;6.18;;;;;;;12.69;100.00;95760.72;4964614;28;20071;-49
2021/05/12 11:07:29;;;;;;;8.63;6.60;;;;;;;12.68;100.00;95757.25;4966297;28;20169;-50
2021/05/12 11:09:58;;;;;;;8.00;6.35;;;;;;;12.65;100.00;95749.66;4969688;28;20050;-47
2021/05/12 11:12:38;;;;;;;7.90;6.40;;;;;;;13.05;100.00;95751.22;4966858;28;20048;-46
2021/05/12 11:15:08;;;;;;;6.90;6.20;;;;;;;13.23;100.00;95748.25;4943069;28;20038;-47
2021/05/12 11:17:45;;;;;;;6.07;4.90;;;;;;;13.38;100.00;95744.84;4961538;28;20071;-46
2021/05/12 11:20:25;;;;;;;6.85;6.15;;;;;;;13.70;100.00;95735.78;4966457;28;20073;-48
2021/05/12 11:22:56;;;;;;;6.25;5.32;;;;;;;13.30;100.00;95732.50;4965040;28;20698;-45
2021/05/12 11:25:39;;;;;;;7.97;5.88;;;;;;;13.46;100.00;95744.78;4962678;28;20066;-54
2021/05/12 11:31:30;;;;;;;5.70;4.93;;;;;;;13.47;100.00;95743.78;4958881;28;20074;-46
2021/05/12 11:33:59;;;;;;;6.20;5.60;;;;;;;13.45;100.00;95740.47;4960006;28;20065;-48
2021/05/12 11:36:35;;;;;;;5.35;4.72;;;;;;;12.95;100.00;95742.69;4956819;28;20446;-47
2021/05/12 11:39:04;;;;;;;5.18;4.68;;;;;;;12.91;100.00;95743.22;4965996;28;20051;-49
2021/05/12 11:41:33;;;;;;;7.32;5.35;;;;;;;12.51;100.00;95751.25;4962940;28;20521;-48
2021/05/12 11:44:03;;;;;;;5.82;4.80;;;;;;;12.42;100.00;95743.53;4968798;28;20064;-46
2021/05/12 11:46:34;;;;;;;6.53;5.93;;;;;;;12.45;100.00;95751.09;4965062;28;20047;-50